createdAt,value
2023-04-11T19:41:05.548Z,97549.15
2023-04-11T19:44:16.535Z,97549.33
2023-04-11T19:46:43.195Z,97554.49
2023-04-11T19:49:09.583Z,97556.96
2023-04-11T19:51:36.242Z,97560.48
2023-04-11T19:54:02.761Z,97566.67
2023-04-11T19:56:29.215Z,97569.02
2023-04-11T19:58:55.649Z,97568.02
2023-04-11T20:01:22.166Z,97570.68
2023-04-11T20:03:48.737Z,97572.05
2023-04-11T20:06:15.401Z,97572.99
2023-04-11T20:08:41.902Z,97572.95
2023-04-11T20:11:08.347Z,97578.47
2023-04-11T20:13:34.807Z,97582.52
2023-04-11T20:16:01.502Z,97584.77
2023-04-11T20:18:27.896Z,97586.90
2023-04-11T20:20:54.357Z,97584.98
2023-04-11T20:23:20.836Z,97590.98
2023-04-11T20:25:47.375Z,97591.65
2023-04-11T20:28:13.865Z,97595.84
2023-04-11T20:30:40.371Z,97596.36
2023-04-11T20:33:06.860Z,97595.20
2023-04-11T20:35:33.539Z,97597.86
2023-04-11T20:38:00.444Z,97600.25
2023-04-11T20:40:27.101Z,97600.29
2023-04-11T20:42:53.576Z,97603.21
2023-04-11T20:45:20.558Z,97603.87
2023-04-11T20:47:48.732Z,97604.20
2023-04-11T20:50:16.745Z,97604.71
2023-04-11T20:52:45.302Z,97607.46
2023-04-11T20:55:13.200Z,97604.80
2023-04-11T20:57:40.700Z,97612.81
2023-04-11T21:00:08.377Z,97610.80
2023-04-11T21:02:34.928Z,97612.79
2023-04-11T21:05:01.872Z,97614.38
2023-04-11T21:07:28.405Z,97619.08
2023-04-11T21:09:55.295Z,97618.75
2023-04-11T21:12:22.092Z,97620.98
2023-04-11T21:14:48.695Z,97624.38
2023-04-11T21:17:15.397Z,97628.42
2023-04-11T21:19:41.884Z,97629.16
2023-04-11T21:22:09.237Z,97630.55
2023-04-11T21:24:35.857Z,97630.44
2023-04-11T21:27:02.750Z,97631.21
2023-04-11T21:29:29.774Z,97632.23
2023-04-11T21:31:56.355Z,97634.95
2023-04-11T21:34:22.892Z,97637.45
2023-04-11T21:36:50.209Z,97637.00
2023-04-11T21:39:16.705Z,97640.70
2023-04-11T21:41:43.427Z,97640.23
2023-04-11T21:44:09.922Z,97641.04
2023-04-11T21:46:36.423Z,97644.40
2023-04-11T21:49:06.480Z,97643.73
2023-04-11T21:51:33.309Z,97648.77
2023-04-11T21:53:59.933Z,97650.19
2023-04-11T21:56:26.551Z,97651.55
2023-04-11T21:58:53.371Z,97651.08
2023-04-11T22:01:19.884Z,97652.23
2023-04-11T22:03:46.952Z,97650.73
2023-04-11T22:06:13.631Z,97654.41
2023-04-11T22:08:40.381Z,97653.54
2023-04-11T22:11:07.356Z,97653.86
2023-04-11T22:13:33.888Z,97654.66
2023-04-11T22:16:00.497Z,97650.33
2023-04-11T22:18:27.308Z,97652.49
2023-04-11T22:20:54.217Z,97661.73
2023-04-11T22:23:21.016Z,97660.51
2023-04-11T22:25:53.715Z,97659.56
2023-04-11T22:28:20.262Z,97661.73
2023-04-11T22:30:47.218Z,97663.54
2023-04-11T22:33:14.186Z,97659.65
2023-04-11T22:35:41.766Z,97656.95
2023-04-11T22:38:08.323Z,97662.19
2023-04-11T22:40:35.163Z,97660.04
2023-04-11T22:43:01.673Z,97659.34
2023-04-11T22:45:28.169Z,97659.52
2023-04-11T22:47:54.726Z,97660.23
2023-04-11T22:50:25.025Z,97656.75
2023-04-11T22:52:51.679Z,97656.27
2023-04-11T22:55:18.156Z,97656.17
2023-04-11T22:57:44.786Z,97652.14
2023-04-11T23:00:11.935Z,97647.42
2023-04-11T23:02:38.726Z,97644.24
2023-04-11T23:05:05.901Z,97639.02
2023-04-11T23:07:32.589Z,97636.77
2023-04-11T23:09:59.562Z,97633.58
2023-04-11T23:12:26.045Z,97631.09
2023-04-11T23:14:52.761Z,97633.36
2023-04-11T23:17:19.427Z,97624.48
2023-04-11T23:19:46.156Z,97623.11
2023-04-11T23:22:13.163Z,97622.26
2023-04-11T23:24:39.858Z,97621.45
2023-04-11T23:27:06.398Z,97620.23
2023-04-11T23:29:33.150Z,97617.13
2023-04-11T23:31:59.733Z,97616.95
2023-04-11T23:34:26.340Z,97613.92
2023-04-11T23:36:54.011Z,97613.14
2023-04-11T23:39:20.783Z,97609.02
2023-04-11T23:41:47.844Z,97607.02
2023-04-11T23:44:14.776Z,97599.86
2023-04-11T23:46:41.292Z,97598.98
2023-04-11T23:49:08.492Z,97602.38
2023-04-11T23:51:36.722Z,97598.80
2023-04-11T23:54:03.631Z,97602.20
2023-04-11T23:56:30.544Z,97599.36
2023-04-11T23:58:57.324Z,97597.83
